sensor_id;sensor_type;location;lat;lon;timestamp;P1;durP1;ratioP1;P2;durP2;ratioP2
44850;SDS011;30583;48.714;9.386;2022-12-11T00:02:03;22.25;;;14.35;;
44850;SDS011;30583;48.714;9.386;2022-12-11T00:04:29;19.75;;;12.55;;
44850;SDS011;30583;48.714;9.386;2022-12-11T00:06:55;23.02;;;13.25;;
44850;SDS011;30583;48.714;9.386;2022-12-11T00:09:20;19.63;;;13.25;;
44850;SDS011;30583;48.714;9.386;2022-12-11T00:11:46;22.20;;;14.25;;
44850;SDS011;30583;48.714;9.386;2022-12-11T00:14:13;23.70;;;14.55;;
44850;SDS011;30583;48.714;9.386;2022-12-11T00:16:39;24.23;;;14.10;;
44850;SDS011;30583;48.714;9.386;2022-12-11T00:19:05;23.50;;;14.38;;
44850;SDS011;30583;48.714;9.386;2022-12-11T00:21:32;21.92;;;13.98;;
44850;SDS011;30583;48.714;9.386;2022-12-11T00:23:58;25.75;;;14.93;;
44850;SDS011;30583;48.714;9.386;2022-12-11T00:26:24;20.83;;;13.35;;
44850;SDS011;30583;48.714;9.386;2022-12-11T00:28:53;24.73;;;14.65;;
44850;SDS011;30583;48.714;9.386;2022-12-11T00:31:20;21.38;;;13.60;;
44850;SDS011;30583;48.714;9.386;2022-12-11T00:33:47;20.42;;;13.35;;
44850;SDS011;30583;48.714;9.386;2022-12-11T00:36:15;23.55;;;14.35;;
44850;SDS011;30583;48.714;9.386;2022-12-11T00:38:43;23.80;;;13.68;;
44850;SDS011;30583;48.714;9.386;2022-12-11T00:41:08;21.88;;;14.43;;
44850;SDS011;30583;48.714;9.386;2022-12-11T00:43:35;23.77;;;14.18;;
44850;SDS011;30583;48.714;9.386;2022-12-11T00:46:01;23.23;;;13.70;;
44850;SDS011;30583;48.714;9.386;2022-12-11T00:48:27;20.48;;;12.90;;
44850;SDS011;30583;48.714;9.386;2022-12-11T00:50:52;20.55;;;13.40;;
44850;SDS011;30583;48.714;9.386;2022-12-11T00:53:18;21.73;;;14.23;;
44850;SDS011;30583;48.714;9.386;2022-12-11T00:55:43;24.02;;;14.65;;
44850;SDS011;30583;48.714;9.386;2022-12-11T00:58:09;24.52;;;13.95;;
44850;SDS011;30583;48.714;9.386;2022-12-11T01:00:36;21.17;;;12.15;;
44850;SDS011;30583;48.714;9.386;2022-12-11T01:03:02;19.58;;;13.05;;
44850;SDS011;30583;48.714;9.386;2022-12-11T01:05:28;24.50;;;14.18;;
44850;SDS011;30583;48.714;9.386;2022-12-11T01:07:54;22.48;;;13.85;;
44850;SDS011;30583;48.714;9.386;2022-12-11T01:10:19;21.38;;;14.15;;
44850;SDS011;30583;48.714;9.386;2022-12-11T01:12:58;23.02;;;14.05;;
44850;SDS011;30583;48.714;9.386;2022-12-11T01:15:26;23.70;;;15.10;;
44850;SDS011;30583;48.714;9.386;2022-12-11T01:17:56;22.23;;;13.98;;
44850;SDS011;30583;48.714;9.386;2022-12-11T01:20:22;24.75;;;14.93;;
44850;SDS011;30583;48.714;9.386;2022-12-11T01:22:53;23.55;;;14.77;;
44850;SDS011;30583;48.714;9.386;2022-12-11T01:25:20;23.17;;;14.50;;
44850;SDS011;30583;48.714;9.386;2022-12-11T01:27:48;24.83;;;14.80;;
44850;SDS011;30583;48.714;9.386;2022-12-11T01:30:15;24.83;;;15.05;;
44850;SDS011;30583;48.714;9.386;2022-12-11T01:32:42;22.15;;;13.48;;
44850;SDS011;30583;48.714;9.386;2022-12-11T01:35:07;26.73;;;16.63;;
44850;SDS011;30583;48.714;9.386;2022-12-11T01:37:33;23.63;;;14.68;;
44850;SDS011;30583;48.714;9.386;2022-12-11T01:39:59;25.42;;;14.63;;
44850;SDS011;30583;48.714;9.386;2022-12-11T01:42:25;23.90;;;14.25;;
44850;SDS011;30583;48.714;9.386;2022-12-11T01:47:51;21.77;;;13.68;;
44850;SDS011;30583;48.714;9.386;2022-12-11T01:50:40;23.73;;;14.68;;
44850;SDS011;30583;48.714;9.386;2022-12-11T01:53:21;23.73;;;14.45;;
44850;SDS011;30583;48.714;9.386;2022-12-11T01:55:52;23.25;;;15.48;;
44850;SDS011;30583;48.714;9.386;2022-12-11T01:58:20;23.67;;;14.40;;
44850;SDS011;30583;48.714;9.386;2022-12-11T02:00:50;22.30;;;13.77;;
44850;SDS011;30583;48.714;9.386;2022-12-11T02:03:16;20.48;;;13.38;;
44850;SDS011;30583;48.714;9.386;2022-12-11T02:05:42;19.17;;;12.55;;
44850;SDS011;30583;48.714;9.386;2022-12-11T02:08:07;19.25;;;12.48;;
44850;SDS011;30583;48.714;9.386;2022-12-11T02:11:17;19.90;;;12.27;;
44850;SDS011;30583;48.714;9.386;2022-12-11T02:13:54;22.38;;;13.38;;
44850;SDS011;30583;48.714;9.386;2022-12-11T02:16:45;20.38;;;13.45;;
44850;SDS011;30583;48.714;9.386;2022-12-11T02:19:43;22.15;;;13.85;;
44850;SDS011;30583;48.714;9.386;2022-12-11T02:22:12;21.60;;;13.80;;
44850;SDS011;30583;48.714;9.386;2022-12-11T02:24:57;20.13;;;13.18;;
44850;SDS011;30583;48.714;9.386;2022-12-11T02:27:48;20.95;;;13.68;;
44850;SDS011;30583;48.714;9.386;2022-12-11T02:30:20;20.63;;;13.95;;
44850;SDS011;30583;48.714;9.386;2022-12-11T02:32:52;22.45;;;14.02;;
44850;SDS011;30583;48.714;9.386;2022-12-11T02:35:21;22.33;;;14.10;;
44850;SDS011;30583;48.714;9.386;2022-12-11T02:37:57;22.08;;;13.73;;
44850;SDS011;30583;48.714;9.386;2022-12-11T02:40:27;22.45;;;14.02;;
44850;SDS011;30583;48.714;9.386;2022-12-11T02:42:55;21.95;;;13.15;;
44850;SDS011;30583;48.714;9.386;2022-12-11T02:45:24;21.30;;;13.27;;
44850;SDS011;30583;48.714;9.386;2022-12-11T02:47:52;23.50;;;14.63;;
44850;SDS011;30583;48.714;9.386;2022-12-11T02:50:20;50.45;;;32.10;;
44850;SDS011;30583;48.714;9.386;2022-12-11T02:52:48;24.27;;;15.40;;
44850;SDS011;30583;48.714;9.386;2022-12-11T02:55:16;21.73;;;14.40;;
44850;SDS011;30583;48.714;9.386;2022-12-11T02:57:45;22.05;;;13.88;;
44850;SDS011;30583;48.714;9.386;2022-12-11T03:00:24;21.50;;;13.45;;
44850;SDS011;30583;48.714;9.386;2022-12-11T03:02:49;27.75;;;18.88;;
44850;SDS011;30583;48.714;9.386;2022-12-11T03:05:15;21.30;;;14.20;;
44850;SDS011;30583;48.714;9.386;2022-12-11T03:07:41;21.88;;;14.35;;
44850;SDS011;30583;48.714;9.386;2022-12-11T03:10:09;21.73;;;13.68;;
44850;SDS011;30583;48.714;9.386;2022-12-11T03:12:37;21.80;;;13.80;;
44850;SDS011;30583;48.714;9.386;2022-12-11T03:15:07;23.30;;;14.38;;
44850;SDS011;30583;48.714;9.386;2022-12-11T03:17:41;22.70;;;13.27;;
44850;SDS011;30583;48.714;9.386;2022-12-11T03:20:28;21.73;;;13.85;;
44850;SDS011;30583;48.714;9.386;2022-12-11T03:25:53;21.85;;;14.73;;
44850;SDS011;30583;48.714;9.386;2022-12-11T03:31:02;21.55;;;14.35;;
44850;SDS011;30583;48.714;9.386;2022-12-11T03:33:42;22.08;;;13.65;;
44850;SDS011;30583;48.714;9.386;2022-12-11T03:36:13;22.60;;;14.15;;
44850;SDS011;30583;48.714;9.386;2022-12-11T03:39:00;22.50;;;14.23;;
44850;SDS011;30583;48.714;9.386;2022-12-11T03:41:31;25.08;;;16.70;;
44850;SDS011;30583;48.714;9.386;2022-12-11T03:43:59;26.75;;;16.00;;
44850;SDS011;30583;48.714;9.386;2022-12-11T03:46:33;21.83;;;14.35;;
44850;SDS011;30583;48.714;9.386;2022-12-11T03:49:06;22.08;;;13.20;;
44850;SDS011;30583;48.714;9.386;2022-12-11T03:51:39;23.30;;;14.52;;
44850;SDS011;30583;48.714;9.386;2022-12-11T03:54:06;21.38;;;14.38;;
44850;SDS011;30583;48.714;9.386;2022-12-11T03:56:32;23.13;;;15.23;;
44850;SDS011;30583;48.714;9.386;2022-12-11T03:58:59;25.80;;;14.85;;
44850;SDS011;30583;48.714;9.386;2022-12-11T04:01:25;22.92;;;15.43;;
44850;SDS011;30583;48.714;9.386;2022-12-11T04:03:50;23.75;;;14.40;;
44850;SDS011;30583;48.714;9.386;2022-12-11T04:06:16;21.42;;;13.65;;
44850;SDS011;30583;48.714;9.386;2022-12-11T04:08:41;23.35;;;14.88;;
44850;SDS011;30583;48.714;9.386;2022-12-11T04:11:08;26.67;;;14.95;;
44850;SDS011;30583;48.714;9.386;2022-12-11T04:13:53;26.55;;;14.80;;
44850;SDS011;30583;48.714;9.386;2022-12-11T04:19:03;24.55;;;14.63;;
44850;SDS011;30583;48.714;9.386;2022-12-11T04:24:32;22.60;;;13.68;;
44850;SDS011;30583;48.714;9.386;2022-12-11T04:26:58;19.10;;;12.07;;
44850;SDS011;30583;48.714;9.386;2022-12-11T04:29:23;19.40;;;12.13;;
44850;SDS011;30583;48.714;9.386;2022-12-11T04:31:49;22.38;;;13.73;;
44850;SDS011;30583;48.714;9.386;2022-12-11T04:34:15;21.15;;;13.18;;
44850;SDS011;30583;48.714;9.386;2022-12-11T04:36:41;19.98;;;12.95;;
44850;SDS011;30583;48.714;9.386;2022-12-11T04:39:06;21.55;;;13.27;;
44850;SDS011;30583;48.714;9.386;2022-12-11T04:41:32;21.55;;;13.13;;
44850;SDS011;30583;48.714;9.386;2022-12-11T04:43:58;18.95;;;12.93;;
44850;SDS011;30583;48.714;9.386;2022-12-11T04:46:23;19.63;;;13.02;;
44850;SDS011;30583;48.714;9.386;2022-12-11T04:48:50;20.95;;;12.68;;
44850;SDS011;30583;48.714;9.386;2022-12-11T04:51:16;19.63;;;12.93;;
44850;SDS011;30583;48.714;9.386;2022-12-11T04:53:43;20.55;;;13.43;;
44850;SDS011;30583;48.714;9.386;2022-12-11T04:56:10;19.17;;;13.18;;
44850;SDS011;30583;48.714;9.386;2022-12-11T04:58:38;18.88;;;12.82;;
44850;SDS011;30583;48.714;9.386;2022-12-11T05:01:08;18.63;;;11.50;;
44850;SDS011;30583;48.714;9.386;2022-12-11T05:03:34;16.05;;;11.32;;
44850;SDS011;30583;48.714;9.386;2022-12-11T05:06:00;13.85;;;9.90;;
44850;SDS011;30583;48.714;9.386;2022-12-11T05:08:26;14.98;;;9.95;;
44850;SDS011;30583;48.714;9.386;2022-12-11T05:10:58;15.13;;;10.20;;
44850;SDS011;30583;48.714;9.386;2022-12-11T05:13:25;16.05;;;10.85;;
44850;SDS011;30583;48.714;9.386;2022-12-11T05:15:52;18.27;;;11.68;;
44850;SDS011;30583;48.714;9.386;2022-12-11T05:18:18;16.58;;;10.82;;
44850;SDS011;30583;48.714;9.386;2022-12-11T05:20:43;18.25;;;11.23;;
44850;SDS011;30583;48.714;9.386;2022-12-11T05:23:09;17.58;;;10.52;;
44850;SDS011;30583;48.714;9.386;2022-12-11T05:25:35;17.38;;;10.32;;
44850;SDS011;30583;48.714;9.386;2022-12-11T05:28:00;18.17;;;11.13;;
44850;SDS011;30583;48.714;9.386;2022-12-11T05:30:26;18.88;;;11.52;;
44850;SDS011;30583;48.714;9.386;2022-12-11T05:32:51;17.65;;;11.68;;
44850;SDS011;30583;48.714;9.386;2022-12-11T05:35:17;18.30;;;11.90;;
44850;SDS011;30583;48.714;9.386;2022-12-11T05:37:43;20.13;;;12.13;;
44850;SDS011;30583;48.714;9.386;2022-12-11T05:40:08;20.73;;;12.57;;
44850;SDS011;30583;48.714;9.386;2022-12-11T05:42:36;20.45;;;11.93;;
44850;SDS011;30583;48.714;9.386;2022-12-11T05:45:02;16.48;;;11.00;;
44850;SDS011;30583;48.714;9.386;2022-12-11T05:47:29;19.88;;;12.10;;
44850;SDS011;30583;48.714;9.386;2022-12-11T05:49:55;17.00;;;11.25;;
44850;SDS011;30583;48.714;9.386;2022-12-11T05:52:21;18.92;;;11.20;;
44850;SDS011;30583;48.714;9.386;2022-12-11T05:54:47;19.10;;;12.27;;
44850;SDS011;30583;48.714;9.386;2022-12-11T05:57:14;18.25;;;11.63;;
44850;SDS011;30583;48.714;9.386;2022-12-11T05:59:40;17.33;;;11.43;;
44850;SDS011;30583;48.714;9.386;2022-12-11T06:02:05;17.02;;;11.32;;
44850;SDS011;30583;48.714;9.386;2022-12-11T06:04:31;19.00;;;12.68;;
44850;SDS011;30583;48.714;9.386;2022-12-11T06:06:57;19.15;;;11.77;;
44850;SDS011;30583;48.714;9.386;2022-12-11T06:09:23;18.08;;;11.35;;
44850;SDS011;30583;48.714;9.386;2022-12-11T06:11:48;18.48;;;12.07;;
44850;SDS011;30583;48.714;9.386;2022-12-11T06:14:14;19.73;;;12.40;;
44850;SDS011;30583;48.714;9.386;2022-12-11T06:16:39;19.77;;;13.15;;
44850;SDS011;30583;48.714;9.386;2022-12-11T06:19:05;21.50;;;13.07;;
44850;SDS011;30583;48.714;9.386;2022-12-11T06:21:31;20.65;;;12.98;;
44850;SDS011;30583;48.714;9.386;2022-12-11T06:23:58;20.00;;;12.23;;
44850;SDS011;30583;48.714;9.386;2022-12-11T06:26:26;19.75;;;12.52;;
44850;SDS011;30583;48.714;9.386;2022-12-11T06:28:52;23.15;;;13.93;;
44850;SDS011;30583;48.714;9.386;2022-12-11T06:31:18;22.63;;;13.10;;
44850;SDS011;30583;48.714;9.386;2022-12-11T06:33:44;29.30;;;16.63;;
44850;SDS011;30583;48.714;9.386;2022-12-11T06:36:11;24.10;;;14.48;;
44850;SDS011;30583;48.714;9.386;2022-12-11T06:38:39;19.98;;;12.57;;
44850;SDS011;30583;48.714;9.386;2022-12-11T06:41:05;18.60;;;12.35;;
44850;SDS011;30583;48.714;9.386;2022-12-11T06:43:32;20.45;;;11.95;;
44850;SDS011;30583;48.714;9.386;2022-12-11T06:46:02;19.33;;;12.45;;
44850;SDS011;30583;48.714;9.386;2022-12-11T06:48:29;19.13;;;11.82;;
44850;SDS011;30583;48.714;9.386;2022-12-11T06:50:55;19.77;;;11.85;;
44850;SDS011;30583;48.714;9.386;2022-12-11T06:53:20;19.83;;;12.45;;
44850;SDS011;30583;48.714;9.386;2022-12-11T06:55:46;40.65;;;20.05;;
44850;SDS011;30583;48.714;9.386;2022-12-11T06:58:12;190.65;;;75.60;;
44850;SDS011;30583;48.714;9.386;2022-12-11T07:00:37;89.50;;;40.50;;
44850;SDS011;30583;48.714;9.386;2022-12-11T07:03:03;142.20;;;70.88;;
44850;SDS011;30583;48.714;9.386;2022-12-11T07:05:30;35.97;;;20.27;;
44850;SDS011;30583;48.714;9.386;2022-12-11T07:07:56;39.75;;;23.23;;
44850;SDS011;30583;48.714;9.386;2022-12-11T07:10:22;33.90;;;20.73;;
44850;SDS011;30583;48.714;9.386;2022-12-11T07:12:48;27.30;;;16.52;;
44850;SDS011;30583;48.714;9.386;2022-12-11T07:15:13;20.00;;;12.90;;
44850;SDS011;30583;48.714;9.386;2022-12-11T07:17:39;20.30;;;12.45;;
44850;SDS011;30583;48.714;9.386;2022-12-11T07:20:05;149.50;;;61.28;;
44850;SDS011;30583;48.714;9.386;2022-12-11T07:22:31;265.27;;;91.00;;
44850;SDS011;30583;48.714;9.386;2022-12-11T07:24:56;1333.38;;;501.98;;
44850;SDS011;30583;48.714;9.386;2022-12-11T07:27:22;954.70;;;360.83;;
44850;SDS011;30583;48.714;9.386;2022-12-11T07:29:49;1072.75;;;380.92;;
44850;SDS011;30583;48.714;9.386;2022-12-11T07:32:15;473.80;;;148.68;;
44850;SDS011;30583;48.714;9.386;2022-12-11T07:34:40;97.90;;;36.15;;
44850;SDS011;30583;48.714;9.386;2022-12-11T07:37:06;34.42;;;18.10;;
44850;SDS011;30583;48.714;9.386;2022-12-11T07:39:32;31.25;;;14.73;;
44850;SDS011;30583;48.714;9.386;2022-12-11T07:41:58;24.95;;;13.73;;
44850;SDS011;30583;48.714;9.386;2022-12-11T07:44:23;97.18;;;33.33;;
44850;SDS011;30583;48.714;9.386;2022-12-11T07:46:49;30.27;;;16.15;;
44850;SDS011;30583;48.714;9.386;2022-12-11T07:49:14;20.65;;;12.50;;
44850;SDS011;30583;48.714;9.386;2022-12-11T07:51:41;23.42;;;13.35;;
44850;SDS011;30583;48.714;9.386;2022-12-11T07:54:09;116.30;;;39.72;;
44850;SDS011;30583;48.714;9.386;2022-12-11T07:56:40;42.08;;;19.25;;
44850;SDS011;30583;48.714;9.386;2022-12-11T07:59:09;313.13;;;102.53;;
44850;SDS011;30583;48.714;9.386;2022-12-11T08:01:35;125.13;;;49.38;;
44850;SDS011;30583;48.714;9.386;2022-12-11T08:04:03;134.10;;;51.80;;
44850;SDS011;30583;48.714;9.386;2022-12-11T08:06:31;284.92;;;101.47;;
44850;SDS011;30583;48.714;9.386;2022-12-11T08:09:02;167.18;;;69.30;;
44850;SDS011;30583;48.714;9.386;2022-12-11T08:11:29;53.78;;;25.95;;
44850;SDS011;30583;48.714;9.386;2022-12-11T08:13:55;327.45;;;145.70;;
44850;SDS011;30583;48.714;9.386;2022-12-11T08:16:23;53.20;;;26.83;;
44850;SDS011;30583;48.714;9.386;2022-12-11T08:18:49;31.60;;;18.10;;
44850;SDS011;30583;48.714;9.386;2022-12-11T08:21:21;129.20;;;60.55;;
44850;SDS011;30583;48.714;9.386;2022-12-11T08:23:49;220.80;;;104.90;;
44850;SDS011;30583;48.714;9.386;2022-12-11T08:26:19;60.13;;;32.67;;
44850;SDS011;30583;48.714;9.386;2022-12-11T08:28:47;171.00;;;91.00;;
44850;SDS011;30583;48.714;9.386;2022-12-11T08:31:13;66.57;;;39.22;;
44850;SDS011;30583;48.714;9.386;2022-12-11T08:33:40;56.85;;;31.63;;
44850;SDS011;30583;48.714;9.386;2022-12-11T08:36:07;56.55;;;34.65;;
44850;SDS011;30583;48.714;9.386;2022-12-11T08:38:35;53.85;;;30.95;;
44850;SDS011;30583;48.714;9.386;2022-12-11T08:41:11;88.82;;;45.92;;
44850;SDS011;30583;48.714;9.386;2022-12-11T08:43:37;67.85;;;35.03;;
44850;SDS011;30583;48.714;9.386;2022-12-11T08:46:03;66.68;;;37.83;;
44850;SDS011;30583;48.714;9.386;2022-12-11T08:48:29;73.82;;;43.05;;
44850;SDS011;30583;48.714;9.386;2022-12-11T08:50:57;38.45;;;23.98;;
44850;SDS011;30583;48.714;9.386;2022-12-11T08:53:25;27.23;;;17.02;;
44850;SDS011;30583;48.714;9.386;2022-12-11T08:55:51;22.42;;;14.45;;
44850;SDS011;30583;48.714;9.386;2022-12-11T08:58:17;24.52;;;13.98;;
44850;SDS011;30583;48.714;9.386;2022-12-11T09:00:42;29.48;;;18.20;;
44850;SDS011;30583;48.714;9.386;2022-12-11T09:03:08;30.13;;;18.63;;
44850;SDS011;30583;48.714;9.386;2022-12-11T09:05:33;109.50;;;65.32;;
44850;SDS011;30583;48.714;9.386;2022-12-11T09:07:59;102.25;;;60.65;;
44850;SDS011;30583;48.714;9.386;2022-12-11T09:10:24;62.95;;;37.92;;
44850;SDS011;30583;48.714;9.386;2022-12-11T09:12:50;47.65;;;27.27;;
44850;SDS011;30583;48.714;9.386;2022-12-11T09:15:15;65.15;;;37.20;;
44850;SDS011;30583;48.714;9.386;2022-12-11T09:17:41;73.20;;;39.95;;
44850;SDS011;30583;48.714;9.386;2022-12-11T09:20:07;26.75;;;14.68;;
44850;SDS011;30583;48.714;9.386;2022-12-11T09:22:33;28.38;;;16.83;;
44850;SDS011;30583;48.714;9.386;2022-12-11T09:24:58;25.30;;;14.60;;
44850;SDS011;30583;48.714;9.386;2022-12-11T09:27:24;28.02;;;14.95;;
44850;SDS011;30583;48.714;9.386;2022-12-11T09:29:49;25.13;;;14.73;;
44850;SDS011;30583;48.714;9.386;2022-12-11T09:32:15;24.90;;;14.25;;
44850;SDS011;30583;48.714;9.386;2022-12-11T09:34:41;23.95;;;13.77;;
44850;SDS011;30583;48.714;9.386;2022-12-11T09:37:06;30.90;;;17.23;;
44850;SDS011;30583;48.714;9.386;2022-12-11T09:39:32;28.05;;;16.65;;
44850;SDS011;30583;48.714;9.386;2022-12-11T09:44:46;24.23;;;15.23;;
44850;SDS011;30583;48.714;9.386;2022-12-11T09:47:35;38.85;;;20.55;;
44850;SDS011;30583;48.714;9.386;2022-12-11T09:50:09;48.22;;;23.95;;
44850;SDS011;30583;48.714;9.386;2022-12-11T09:52:51;29.52;;;16.10;;
44850;SDS011;30583;48.714;9.386;2022-12-11T10:00:53;31.38;;;19.08;;
44850;SDS011;30583;48.714;9.386;2022-12-11T10:03:33;27.33;;;17.30;;
44850;SDS011;30583;48.714;9.386;2022-12-11T10:06:32;23.90;;;14.75;;
44850;SDS011;30583;48.714;9.386;2022-12-11T10:17:18;29.40;;;17.67;;
44850;SDS011;30583;48.714;9.386;2022-12-11T10:19:47;29.02;;;16.45;;
44850;SDS011;30583;48.714;9.386;2022-12-11T10:22:20;26.00;;;16.25;;
44850;SDS011;30583;48.714;9.386;2022-12-11T10:24:57;25.80;;;14.68;;
44850;SDS011;30583;48.714;9.386;2022-12-11T10:27:29;25.52;;;15.05;;
44850;SDS011;30583;48.714;9.386;2022-12-11T10:35:35;26.90;;;15.27;;
44850;SDS011;30583;48.714;9.386;2022-12-11T10:38:09;25.90;;;16.17;;
44850;SDS011;30583;48.714;9.386;2022-12-11T10:40:51;27.95;;;16.10;;
44850;SDS011;30583;48.714;9.386;2022-12-11T10:43:19;26.13;;;16.30;;
44850;SDS011;30583;48.714;9.386;2022-12-11T10:45:52;27.35;;;16.67;;
44850;SDS011;30583;48.714;9.386;2022-12-11T10:48:18;30.88;;;19.25;;
44850;SDS011;30583;48.714;9.386;2022-12-11T10:50:45;29.75;;;17.63;;
44850;SDS011;30583;48.714;9.386;2022-12-11T10:53:23;27.50;;;16.75;;
44850;SDS011;30583;48.714;9.386;2022-12-11T10:55:50;26.08;;;15.63;;
44850;SDS011;30583;48.714;9.386;2022-12-11T10:58:18;25.92;;;16.05;;
44850;SDS011;30583;48.714;9.386;2022-12-11T11:00:48;29.55;;;16.85;;
44850;SDS011;30583;48.714;9.386;2022-12-11T11:04:13;28.08;;;16.33;;
44850;SDS011;30583;48.714;9.386;2022-12-11T11:06:44;28.00;;;16.85;;
44850;SDS011;30583;48.714;9.386;2022-12-11T11:12:00;29.05;;;16.95;;
44850;SDS011;30583;48.714;9.386;2022-12-11T11:14:26;37.53;;;18.80;;
44850;SDS011;30583;48.714;9.386;2022-12-11T11:16:56;31.95;;;17.60;;
44850;SDS011;30583;48.714;9.386;2022-12-11T11:19:31;26.98;;;16.95;;
44850;SDS011;30583;48.714;9.386;2022-12-11T11:24:27;27.63;;;16.30;;
44850;SDS011;30583;48.714;9.386;2022-12-11T11:30:18;27.42;;;17.08;;
44850;SDS011;30583;48.714;9.386;2022-12-11T11:32:46;27.70;;;15.98;;
44850;SDS011;30583;48.714;9.386;2022-12-11T11:35:56;28.17;;;15.80;;
44850;SDS011;30583;48.714;9.386;2022-12-11T11:38:27;29.75;;;16.27;;
44850;SDS011;30583;48.714;9.386;2022-12-11T11:41:14;26.65;;;15.52;;
44850;SDS011;30583;48.714;9.386;2022-12-11T11:43:59;29.13;;;15.77;;
44850;SDS011;30583;48.714;9.386;2022-12-11T11:46:32;24.05;;;14.77;;
44850;SDS011;30583;48.714;9.386;2022-12-11T11:57:35;25.80;;;16.17;;
44850;SDS011;30583;48.714;9.386;2022-12-11T12:00:32;28.17;;;18.60;;
44850;SDS011;30583;48.714;9.386;2022-12-11T12:03:17;27.48;;;17.90;;
44850;SDS011;30583;48.714;9.386;2022-12-11T12:05:54;24.48;;;15.60;;
44850;SDS011;30583;48.714;9.386;2022-12-11T12:14:13;29.00;;;18.10;;
44850;SDS011;30583;48.714;9.386;2022-12-11T12:16:51;22.48;;;14.23;;
44850;SDS011;30583;48.714;9.386;2022-12-11T12:19:33;23.02;;;13.63;;
44850;SDS011;30583;48.714;9.386;2022-12-11T12:25:09;28.23;;;16.95;;
44850;SDS011;30583;48.714;9.386;2022-12-11T12:27:58;26.60;;;15.80;;
44850;SDS011;30583;48.714;9.386;2022-12-11T12:30:37;25.17;;;14.73;;
44850;SDS011;30583;48.714;9.386;2022-12-11T12:38:53;22.70;;;14.43;;
44850;SDS011;30583;48.714;9.386;2022-12-11T12:41:31;26.83;;;15.95;;
44850;SDS011;30583;48.714;9.386;2022-12-11T12:44:15;29.95;;;16.08;;
44850;SDS011;30583;48.714;9.386;2022-12-11T12:46:48;27.95;;;15.25;;
44850;SDS011;30583;48.714;9.386;2022-12-11T12:49:36;22.17;;;14.00;;
44850;SDS011;30583;48.714;9.386;2022-12-11T12:52:40;20.75;;;13.73;;
44850;SDS011;30583;48.714;9.386;2022-12-11T12:57:38;24.40;;;14.52;;
44850;SDS011;30583;48.714;9.386;2022-12-11T13:00:06;24.17;;;14.90;;
44850;SDS011;30583;48.714;9.386;2022-12-11T13:02:36;22.67;;;14.15;;
44850;SDS011;30583;48.714;9.386;2022-12-11T13:05:16;25.08;;;16.02;;
44850;SDS011;30583;48.714;9.386;2022-12-11T13:07:52;24.83;;;14.68;;
44850;SDS011;30583;48.714;9.386;2022-12-11T13:10:32;21.92;;;14.02;;
44850;SDS011;30583;48.714;9.386;2022-12-11T13:13:00;25.02;;;14.65;;
44850;SDS011;30583;48.714;9.386;2022-12-11T13:15:35;23.15;;;13.98;;
44850;SDS011;30583;48.714;9.386;2022-12-11T13:21:53;26.88;;;15.18;;
44850;SDS011;30583;48.714;9.386;2022-12-11T13:26:44;25.60;;;15.63;;
44850;SDS011;30583;48.714;9.386;2022-12-11T13:32:01;32.08;;;18.27;;
44850;SDS011;30583;48.714;9.386;2022-12-11T13:34:54;28.40;;;16.40;;
44850;SDS011;30583;48.714;9.386;2022-12-11T13:37:26;26.35;;;15.32;;
44850;SDS011;30583;48.714;9.386;2022-12-11T13:40:04;56.50;;;26.60;;
44850;SDS011;30583;48.714;9.386;2022-12-11T13:42:48;49.55;;;24.25;;
44850;SDS011;30583;48.714;9.386;2022-12-11T13:47:54;27.67;;;15.70;;
44850;SDS011;30583;48.714;9.386;2022-12-11T13:50:23;23.98;;;14.65;;
44850;SDS011;30583;48.714;9.386;2022-12-11T13:52:54;24.00;;;14.07;;
44850;SDS011;30583;48.714;9.386;2022-12-11T13:55:22;26.60;;;15.05;;
44850;SDS011;30583;48.714;9.386;2022-12-11T13:57:50;23.55;;;14.50;;
44850;SDS011;30583;48.714;9.386;2022-12-11T14:00:18;26.38;;;14.13;;
44850;SDS011;30583;48.714;9.386;2022-12-11T14:02:46;22.98;;;14.38;;
44850;SDS011;30583;48.714;9.386;2022-12-11T14:05:12;27.20;;;16.08;;
44850;SDS011;30583;48.714;9.386;2022-12-11T14:07:58;28.67;;;16.33;;
44850;SDS011;30583;48.714;9.386;2022-12-11T14:10:30;24.70;;;14.43;;
44850;SDS011;30583;48.714;9.386;2022-12-11T14:13:00;29.90;;;16.80;;
44850;SDS011;30583;48.714;9.386;2022-12-11T14:15:30;29.85;;;17.30;;
44850;SDS011;30583;48.714;9.386;2022-12-11T14:17:57;26.30;;;15.93;;
44850;SDS011;30583;48.714;9.386;2022-12-11T14:20:31;26.35;;;15.93;;
44850;SDS011;30583;48.714;9.386;2022-12-11T14:23:15;25.35;;;14.90;;
44850;SDS011;30583;48.714;9.386;2022-12-11T14:25:50;23.85;;;14.82;;
44850;SDS011;30583;48.714;9.386;2022-12-11T14:28:20;26.90;;;16.88;;
44850;SDS011;30583;48.714;9.386;2022-12-11T14:30:51;25.98;;;16.20;;
44850;SDS011;30583;48.714;9.386;2022-12-11T14:33:19;24.30;;;15.07;;
44850;SDS011;30583;48.714;9.386;2022-12-11T14:35:49;24.45;;;15.20;;
44850;SDS011;30583;48.714;9.386;2022-12-11T14:38:18;21.67;;;14.30;;
44850;SDS011;30583;48.714;9.386;2022-12-11T14:40:48;21.60;;;13.77;;
44850;SDS011;30583;48.714;9.386;2022-12-11T14:43:27;22.60;;;13.82;;
44850;SDS011;30583;48.714;9.386;2022-12-11T14:46:01;23.98;;;15.20;;
44850;SDS011;30583;48.714;9.386;2022-12-11T14:48:35;26.48;;;14.45;;
44850;SDS011;30583;48.714;9.386;2022-12-11T14:51:09;27.33;;;15.48;;
44850;SDS011;30583;48.714;9.386;2022-12-11T14:53:40;31.23;;;18.33;;
44850;SDS011;30583;48.714;9.386;2022-12-11T14:56:16;30.00;;;17.83;;
44850;SDS011;30583;48.714;9.386;2022-12-11T14:58:56;29.60;;;17.17;;
44850;SDS011;30583;48.714;9.386;2022-12-11T15:01:31;32.10;;;18.38;;
44850;SDS011;30583;48.714;9.386;2022-12-11T15:06:41;36.13;;;22.17;;
44850;SDS011;30583;48.714;9.386;2022-12-11T15:09:09;33.40;;;19.83;;
44850;SDS011;30583;48.714;9.386;2022-12-11T15:11:42;37.17;;;21.73;;
44850;SDS011;30583;48.714;9.386;2022-12-11T15:14:09;33.55;;;20.58;;
44850;SDS011;30583;48.714;9.386;2022-12-11T15:16:37;42.35;;;26.48;;
44850;SDS011;30583;48.714;9.386;2022-12-11T15:19:05;37.00;;;22.13;;
44850;SDS011;30583;48.714;9.386;2022-12-11T15:21:40;30.02;;;18.20;;
44850;SDS011;30583;48.714;9.386;2022-12-11T15:24:05;27.35;;;16.92;;
44850;SDS011;30583;48.714;9.386;2022-12-11T15:26:45;29.65;;;19.15;;
44850;SDS011;30583;48.714;9.386;2022-12-11T15:29:23;29.98;;;17.35;;
44850;SDS011;30583;48.714;9.386;2022-12-11T15:32:19;37.03;;;18.98;;
44850;SDS011;30583;48.714;9.386;2022-12-11T15:34:51;33.90;;;19.73;;
44850;SDS011;30583;48.714;9.386;2022-12-11T15:40:00;31.92;;;20.27;;
44850;SDS011;30583;48.714;9.386;2022-12-11T15:42:28;32.78;;;18.55;;
44850;SDS011;30583;48.714;9.386;2022-12-11T15:44:54;31.10;;;18.48;;
44850;SDS011;30583;48.714;9.386;2022-12-11T15:47:22;31.17;;;17.85;;
44850;SDS011;30583;48.714;9.386;2022-12-11T15:49:54;33.50;;;19.83;;
44850;SDS011;30583;48.714;9.386;2022-12-11T15:52:22;33.10;;;18.98;;
44850;SDS011;30583;48.714;9.386;2022-12-11T15:54:48;30.45;;;17.40;;
44850;SDS011;30583;48.714;9.386;2022-12-11T15:57:15;34.25;;;20.20;;
44850;SDS011;30583;48.714;9.386;2022-12-11T15:59:43;29.15;;;19.23;;
44850;SDS011;30583;48.714;9.386;2022-12-11T16:02:11;31.25;;;17.05;;
44850;SDS011;30583;48.714;9.386;2022-12-11T16:04:37;28.55;;;17.08;;
44850;SDS011;30583;48.714;9.386;2022-12-11T16:07:03;32.50;;;17.52;;